sensor_id;sensor_type;location;lat;lon;timestamp;pressure;altitude;pressure_sealevel;temperature;humidity
29045;BME280;16133;49.486;12.176;2024-03-22T00:00:30;97946.59;;;4.71;100.00
29045;BME280;16133;49.486;12.176;2024-03-22T00:02:55;97936.94;;;4.72;100.00
29045;BME280;16133;49.486;12.176;2024-03-22T00:05:20;97936.81;;;4.73;100.00
29045;BME280;16133;49.486;12.176;2024-03-22T00:07:47;97927.97;;;4.74;100.00
29045;BME280;16133;49.486;12.176;2024-03-22T00:10:13;97924.34;;;4.75;100.00
29045;BME280;16133;49.486;12.176;2024-03-22T00:12:39;97928.81;;;4.75;100.00
29045;BME280;16133;49.486;12.176;2024-03-22T00:15:05;97932.13;;;4.77;100.00
29045;BME280;16133;49.486;12.176;2024-03-22T00:17:30;97919.94;;;4.76;100.00
29045;BME280;16133;49.486;12.176;2024-03-22T00:19:56;97917.69;;;4.71;100.00
29045;BME280;16133;49.486;12.176;2024-03-22T00:22:22;97906.88;;;4.65;100.00
29045;BME280;16133;49.486;12.176;2024-03-22T00:24:47;97915.03;;;4.62;100.00
29045;BME280;16133;49.486;12.176;2024-03-22T00:27:12;97910.16;;;4.57;100.00
29045;BME280;16133;49.486;12.176;2024-03-22T00:29:38;97906.00;;;4.55;100.00
29045;BME280;16133;49.486;12.176;2024-03-22T00:32:04;97914.84;;;4.54;100.00
29045;BME280;16133;49.486;12.176;2024-03-22T00:34:30;97896.72;;;4.51;100.00
29045;BME280;16133;49.486;12.176;2024-03-22T00:36:55;97889.31;;;4.45;100.00
29045;BME280;16133;49.486;12.176;2024-03-22T00:39:21;97893.44;;;4.38;100.00
29045;BME280;16133;49.486;12.176;2024-03-22T00:41:46;97904.09;;;4.36;100.00
29045;BME280;16133;49.486;12.176;2024-03-22T00:44:11;97917.22;;;4.36;100.00
29045;BME280;16133;49.486;12.176;2024-03-22T00:46:37;97906.72;;;4.36;100.00
29045;BME280;16133;49.486;12.176;2024-03-22T00:49:02;97902.31;;;4.37;100.00
29045;BME280;16133;49.486;12.176;2024-03-22T00:51:28;97911.97;;;4.36;100.00
29045;BME280;16133;49.486;12.176;2024-03-22T00:53:53;97905.31;;;4.32;100.00
29045;BME280;16133;49.486;12.176;2024-03-22T00:56:19;97902.09;;;4.28;100.00
29045;BME280;16133;49.486;12.176;2024-03-22T00:58:44;97896.41;;;4.23;100.00
29045;BME280;16133;49.486;12.176;2024-03-22T01:01:09;97898.81;;;4.15;100.00
29045;BME280;16133;49.486;12.176;2024-03-22T01:03:35;97903.50;;;4.12;100.00
29045;BME280;16133;49.486;12.176;2024-03-22T01:06:01;97896.47;;;4.12;100.00
29045;BME280;16133;49.486;12.176;2024-03-22T01:08:27;97894.53;;;4.14;100.00
29045;BME280;16133;49.486;12.176;2024-03-22T01:10:53;97893.56;;;4.15;100.00
29045;BME280;16133;49.486;12.176;2024-03-22T01:13:18;97894.41;;;4.16;100.00
29045;BME280;16133;49.486;12.176;2024-03-22T01:15:44;97892.63;;;4.16;100.00
29045;BME280;16133;49.486;12.176;2024-03-22T01:18:11;97896.19;;;4.15;100.00
29045;BME280;16133;49.486;12.176;2024-03-22T01:20:36;97891.91;;;4.14;100.00
29045;BME280;16133;49.486;12.176;2024-03-22T01:23:02;97886.66;;;4.14;100.00
29045;BME280;16133;49.486;12.176;2024-03-22T01:25:28;97879.97;;;4.10;100.00
29045;BME280;16133;49.486;12.176;2024-03-22T01:27:54;97885.59;;;4.17;100.00
29045;BME280;16133;49.486;12.176;2024-03-22T01:30:19;97886.41;;;4.17;100.00
29045;BME280;16133;49.486;12.176;2024-03-22T01:32:44;97888.78;;;4.20;100.00
29045;BME280;16133;49.486;12.176;2024-03-22T01:35:10;97898.06;;;4.24;100.00
29045;BME280;16133;49.486;12.176;2024-03-22T01:37:35;97894.47;;;4.25;100.00
29045;BME280;16133;49.486;12.176;2024-03-22T01:40:01;97884.56;;;4.29;100.00
29045;BME280;16133;49.486;12.176;2024-03-22T01:42:26;97884.41;;;4.30;100.00
29045;BME280;16133;49.486;12.176;2024-03-22T01:44:51;97885.13;;;4.32;100.00
29045;BME280;16133;49.486;12.176;2024-03-22T01:47:17;97876.28;;;4.33;100.00
29045;BME280;16133;49.486;12.176;2024-03-22T01:49:43;97864.13;;;4.32;100.00
29045;BME280;16133;49.486;12.176;2024-03-22T01:52:09;97869.38;;;4.32;100.00
29045;BME280;16133;49.486;12.176;2024-03-22T01:54:34;97862.44;;;4.31;100.00
29045;BME280;16133;49.486;12.176;2024-03-22T01:57:00;97865.19;;;4.30;100.00
29045;BME280;16133;49.486;12.176;2024-03-22T01:59:27;97859.94;;;4.30;100.00
29045;BME280;16133;49.486;12.176;2024-03-22T02:01:53;97855.78;;;4.27;100.00
29045;BME280;16133;49.486;12.176;2024-03-22T02:04:18;97859.25;;;4.28;100.00
29045;BME280;16133;49.486;12.176;2024-03-22T02:06:44;97853.16;;;4.27;100.00
29045;BME280;16133;49.486;12.176;2024-03-22T02:09:09;97854.94;;;4.27;100.00
29045;BME280;16133;49.486;12.176;2024-03-22T02:11:36;97854.09;;;4.26;100.00
29045;BME280;16133;49.486;12.176;2024-03-22T02:14:03;97854.38;;;4.23;100.00
29045;BME280;16133;49.486;12.176;2024-03-22T02:16:29;97857.13;;;4.22;100.00
29045;BME280;16133;49.486;12.176;2024-03-22T02:18:55;97856.53;;;4.18;100.00
29045;BME280;16133;49.486;12.176;2024-03-22T02:21:20;97857.53;;;4.17;100.00
29045;BME280;16133;49.486;12.176;2024-03-22T02:23:45;97850.72;;;4.15;100.00
29045;BME280;16133;49.486;12.176;2024-03-22T02:26:11;97849.19;;;4.12;100.00
29045;BME280;16133;49.486;12.176;2024-03-22T02:28:36;97848.47;;;4.10;100.00
29045;BME280;16133;49.486;12.176;2024-03-22T02:31:05;97846.56;;;4.12;100.00
29045;BME280;16133;49.486;12.176;2024-03-22T02:33:31;97847.25;;;4.14;100.00
29045;BME280;16133;49.486;12.176;2024-03-22T02:35:56;97836.75;;;4.14;100.00
29045;BME280;16133;49.486;12.176;2024-03-22T02:38:22;97829.84;;;4.13;100.00
29045;BME280;16133;49.486;12.176;2024-03-22T02:40:49;97825.81;;;4.09;100.00
29045;BME280;16133;49.486;12.176;2024-03-22T02:43:14;97820.00;;;4.06;100.00
29045;BME280;16133;49.486;12.176;2024-03-22T02:45:40;97816.66;;;4.04;100.00
29045;BME280;16133;49.486;12.176;2024-03-22T02:48:05;97817.03;;;3.99;100.00
29045;BME280;16133;49.486;12.176;2024-03-22T02:50:35;97820.50;;;4.00;100.00
29045;BME280;16133;49.486;12.176;2024-03-22T02:53:01;97821.44;;;3.99;100.00
29045;BME280;16133;49.486;12.176;2024-03-22T02:55:26;97803.03;;;3.89;100.00
29045;BME280;16133;49.486;12.176;2024-03-22T02:57:52;97818.81;;;3.99;100.00
29045;BME280;16133;49.486;12.176;2024-03-22T03:00:17;97809.16;;;3.99;100.00
29045;BME280;16133;49.486;12.176;2024-03-22T03:02:44;97810.84;;;4.00;100.00
29045;BME280;16133;49.486;12.176;2024-03-22T03:05:09;97810.84;;;4.00;100.00
29045;BME280;16133;49.486;12.176;2024-03-22T03:07:35;97813.47;;;4.00;100.00
29045;BME280;16133;49.486;12.176;2024-03-22T03:10:00;97811.56;;;4.02;100.00
29045;BME280;16133;49.486;12.176;2024-03-22T03:12:26;97811.41;;;4.04;100.00
29045;BME280;16133;49.486;12.176;2024-03-22T03:14:51;97807.81;;;4.05;100.00
29045;BME280;16133;49.486;12.176;2024-03-22T03:17:17;97806.72;;;4.07;100.00
29045;BME280;16133;49.486;12.176;2024-03-22T03:19:42;97804.81;;;4.09;100.00
29045;BME280;16133;49.486;12.176;2024-03-22T03:22:07;97805.66;;;4.10;100.00
29045;BME280;16133;49.486;12.176;2024-03-22T03:24:33;97804.56;;;4.12;100.00
29045;BME280;16133;49.486;12.176;2024-03-22T03:26:58;97792.00;;;4.16;100.00
29045;BME280;16133;49.486;12.176;2024-03-22T03:29:23;97790.06;;;4.18;100.00
29045;BME280;16133;49.486;12.176;2024-03-22T03:31:49;97777.75;;;4.18;100.00
29045;BME280;16133;49.486;12.176;2024-03-22T03:34:14;97782.91;;;4.20;100.00
29045;BME280;16133;49.486;12.176;2024-03-22T03:36:40;97783.84;;;4.19;100.00
29045;BME280;16133;49.486;12.176;2024-03-22T03:39:06;97777.53;;;4.21;100.00
29045;BME280;16133;49.486;12.176;2024-03-22T03:41:31;97771.28;;;4.22;100.00
29045;BME280;16133;49.486;12.176;2024-03-22T03:43:57;97769.66;;;4.21;100.00
29045;BME280;16133;49.486;12.176;2024-03-22T03:46:22;97775.84;;;4.20;100.00
29045;BME280;16133;49.486;12.176;2024-03-22T03:48:48;97772.50;;;4.18;100.00
29045;BME280;16133;49.486;12.176;2024-03-22T03:51:13;97765.63;;;4.17;100.00
29045;BME280;16133;49.486;12.176;2024-03-22T03:53:39;97769.19;;;4.16;100.00
29045;BME280;16133;49.486;12.176;2024-03-22T03:56:04;97780.53;;;4.17;100.00
29045;BME280;16133;49.486;12.176;2024-03-22T03:58:29;97771.00;;;4.16;100.00
29045;BME280;16133;49.486;12.176;2024-03-22T04:00:55;97770.16;;;4.15;100.00
29045;BME280;16133;49.486;12.176;2024-03-22T04:03:20;97778.03;;;4.15;100.00
29045;BME280;16133;49.486;12.176;2024-03-22T04:05:45;97778.88;;;4.16;100.00
29045;BME280;16133;49.486;12.176;2024-03-22T04:08:11;97779.69;;;4.16;100.00
29045;BME280;16133;49.486;12.176;2024-03-22T04:10:36;97769.47;;;4.13;100.00
29045;BME280;16133;49.486;12.176;2024-03-22T04:13:02;97778.56;;;4.09;100.00
29045;BME280;16133;49.486;12.176;2024-03-22T04:15:27;97776.06;;;4.08;100.00
29045;BME280;16133;49.486;12.176;2024-03-22T04:17:55;97778.84;;;4.06;100.00
29045;BME280;16133;49.486;12.176;2024-03-22T04:20:20;97774.06;;;4.00;100.00
29045;BME280;16133;49.486;12.176;2024-03-22T04:22:45;97774.34;;;3.97;100.00
29045;BME280;16133;49.486;12.176;2024-03-22T04:25:11;97769.09;;;3.97;100.00
29045;BME280;16133;49.486;12.176;2024-03-22T04:27:36;97761.22;;;3.97;100.00
29045;BME280;16133;49.486;12.176;2024-03-22T04:30:02;97768.38;;;3.95;100.00
29045;BME280;16133;49.486;12.176;2024-03-22T04:32:27;97763.13;;;3.95;100.00
29045;BME280;16133;49.486;12.176;2024-03-22T04:34:53;97758.72;;;3.96;100.00
29045;BME280;16133;49.486;12.176;2024-03-22T04:37:20;97763.84;;;3.97;100.00
29045;BME280;16133;49.486;12.176;2024-03-22T04:39:45;97761.91;;;3.99;100.00
29045;BME280;16133;49.486;12.176;2024-03-22T04:42:11;97759.28;;;3.99;100.00
29045;BME280;16133;49.486;12.176;2024-03-22T04:44:36;97762.63;;;4.01;100.00
29045;BME280;16133;49.486;12.176;2024-03-22T04:47:02;97765.25;;;4.01;100.00
29045;BME280;16133;49.486;12.176;2024-03-22T04:49:27;97767.88;;;4.01;100.00
29045;BME280;16133;49.486;12.176;2024-03-22T04:51:52;97772.03;;;4.04;100.00
29045;BME280;16133;49.486;12.176;2024-03-22T04:54:18;97773.69;;;4.05;100.00
29045;BME280;16133;49.486;12.176;2024-03-22T04:56:43;97776.19;;;4.06;100.00
29045;BME280;16133;49.486;12.176;2024-03-22T04:59:08;97769.13;;;4.07;100.00
29045;BME280;16133;49.486;12.176;2024-03-22T05:01:34;97768.31;;;4.06;100.00
29045;BME280;16133;49.486;12.176;2024-03-22T05:03:59;97771.75;;;4.07;100.00
29045;BME280;16133;49.486;12.176;2024-03-22T05:06:24;97763.66;;;4.10;100.00
29045;BME280;16133;49.486;12.176;2024-03-22T05:08:50;97760.88;;;4.11;100.00
29045;BME280;16133;49.486;12.176;2024-03-22T05:11:15;97760.03;;;4.11;100.00
29045;BME280;16133;49.486;12.176;2024-03-22T05:13:41;97759.19;;;4.10;100.00
29045;BME280;16133;49.486;12.176;2024-03-22T05:16:06;97758.38;;;4.10;100.00
29045;BME280;16133;49.486;12.176;2024-03-22T05:18:32;97765.44;;;4.09;100.00
29045;BME280;16133;49.486;12.176;2024-03-22T05:20:57;97767.06;;;4.10;100.00
29045;BME280;16133;49.486;12.176;2024-03-22T05:23:23;97762.53;;;4.12;100.00
29045;BME280;16133;49.486;12.176;2024-03-22T05:25:48;97772.09;;;4.13;100.00
29045;BME280;16133;49.486;12.176;2024-03-22T05:28:13;97764.91;;;4.15;100.00
29045;BME280;16133;49.486;12.176;2024-03-22T05:30:39;97767.53;;;4.15;100.00
29045;BME280;16133;49.486;12.176;2024-03-22T05:33:04;97771.56;;;4.19;100.00
29045;BME280;16133;49.486;12.176;2024-03-22T05:35:30;97765.06;;;4.23;100.00
29045;BME280;16133;49.486;12.176;2024-03-22T05:37:55;97762.19;;;4.26;100.00
29045;BME280;16133;49.486;12.176;2024-03-22T05:40:21;97751.41;;;4.29;100.00
29045;BME280;16133;49.486;12.176;2024-03-22T05:42:46;97748.38;;;4.34;100.00
29045;BME280;16133;49.486;12.176;2024-03-22T05:45:12;97757.09;;;4.34;100.00
29045;BME280;16133;49.486;12.176;2024-03-22T05:47:37;97758.78;;;4.36;100.00
29045;BME280;16133;49.486;12.176;2024-03-22T05:50:03;97757.56;;;4.40;100.00
29045;BME280;16133;49.486;12.176;2024-03-22T05:52:32;97733.72;;;4.31;100.00
29045;BME280;16133;49.486;12.176;2024-03-22T05:54:58;97752.97;;;4.42;100.00
29045;BME280;16133;49.486;12.176;2024-03-22T05:57:23;97750.22;;;4.43;100.00
29045;BME280;16133;49.486;12.176;2024-03-22T05:59:49;97743.75;;;4.47;100.00
29045;BME280;16133;49.486;12.176;2024-03-22T06:02:14;97748.59;;;4.52;100.00
29045;BME280;16133;49.486;12.176;2024-03-22T06:04:40;97743.06;;;4.55;100.00
29045;BME280;16133;49.486;12.176;2024-03-22T06:07:06;97744.47;;;4.59;100.00
29045;BME280;16133;49.486;12.176;2024-03-22T06:09:32;97744.47;;;4.59;100.00
29045;BME280;16133;49.486;12.176;2024-03-22T06:12:11;97734.78;;;4.59;100.00
29045;BME280;16133;49.486;12.176;2024-03-22T06:14:36;97741.56;;;4.62;100.00
29045;BME280;16133;49.486;12.176;2024-03-22T06:17:03;97731.75;;;4.64;100.00
29045;BME280;16133;49.486;12.176;2024-03-22T06:19:29;97724.69;;;4.64;100.00
29045;BME280;16133;49.486;12.176;2024-03-22T06:21:54;97730.78;;;4.65;100.00
29045;BME280;16133;49.486;12.176;2024-03-22T06:24:19;97729.81;;;4.66;100.00
29045;BME280;16133;49.486;12.176;2024-03-22T06:26:45;97717.25;;;4.69;100.00
29045;BME280;16133;49.486;12.176;2024-03-22T06:29:10;97723.09;;;4.82;100.00
29045;BME280;16133;49.486;12.176;2024-03-22T06:31:35;97711.31;;;4.96;100.00
29045;BME280;16133;49.486;12.176;2024-03-22T06:34:01;97701.22;;;5.11;100.00
29045;BME280;16133;49.486;12.176;2024-03-22T06:36:31;97698.03;;;5.26;100.00
29045;BME280;16133;49.486;12.176;2024-03-22T06:38:58;97693.59;;;5.37;100.00
29045;BME280;16133;49.486;12.176;2024-03-22T06:41:24;97690.00;;;5.47;100.00
29045;BME280;16133;49.486;12.176;2024-03-22T06:43:51;97689.69;;;5.60;100.00
29045;BME280;16133;49.486;12.176;2024-03-22T06:46:16;97680.34;;;5.75;100.00
29045;BME280;16133;49.486;12.176;2024-03-22T06:48:42;97671.47;;;5.86;100.00
29045;BME280;16133;49.486;12.176;2024-03-22T06:51:07;97672.41;;;6.04;100.00
29045;BME280;16133;49.486;12.176;2024-03-22T06:53:33;97667.59;;;6.27;100.00
29045;BME280;16133;49.486;12.176;2024-03-22T06:55:58;97670.50;;;6.51;100.00
29045;BME280;16133;49.486;12.176;2024-03-22T06:58:23;97660.06;;;6.77;100.00
29045;BME280;16133;49.486;12.176;2024-03-22T07:00:49;97655.56;;;7.04;100.00
29045;BME280;16133;49.486;12.176;2024-03-22T07:03:14;97657.19;;;7.23;100.00
29045;BME280;16133;49.486;12.176;2024-03-22T07:05:39;97654.38;;;7.25;100.00
29045;BME280;16133;49.486;12.176;2024-03-22T07:08:08;97645.28;;;7.19;100.00
29045;BME280;16133;49.486;12.176;2024-03-22T07:10:38;97643.50;;;7.19;100.00
29045;BME280;16133;49.486;12.176;2024-03-22T07:13:04;97641.13;;;7.34;100.00
29045;BME280;16133;49.486;12.176;2024-03-22T07:15:30;97633.91;;;7.44;100.00
29045;BME280;16133;49.486;12.176;2024-03-22T07:17:57;97638.47;;;7.34;100.00
29045;BME280;16133;49.486;12.176;2024-03-22T07:20:23;97642.19;;;7.24;100.00
29045;BME280;16133;49.486;12.176;2024-03-22T07:22:48;97638.03;;;7.21;100.00
29045;BME280;16133;49.486;12.176;2024-03-22T07:25:14;97644.00;;;7.23;100.00
29045;BME280;16133;49.486;12.176;2024-03-22T07:27:39;97643.69;;;7.26;100.00
29045;BME280;16133;49.486;12.176;2024-03-22T07:30:05;97636.59;;;7.27;100.00
29045;BME280;16133;49.486;12.176;2024-03-22T07:32:31;97639.91;;;7.29;100.00
29045;BME280;16133;49.486;12.176;2024-03-22T07:34:57;97635.97;;;7.33;100.00
29045;BME280;16133;49.486;12.176;2024-03-22T07:37:22;97624.81;;;7.39;100.00
29045;BME280;16133;49.486;12.176;2024-03-22T07:39:48;97629.69;;;7.51;100.00
29045;BME280;16133;49.486;12.176;2024-03-22T07:42:14;97617.03;;;7.63;100.00
29045;BME280;16133;49.486;12.176;2024-03-22T07:44:39;97625.19;;;7.69;100.00
29045;BME280;16133;49.486;12.176;2024-03-22T07:47:05;97626.88;;;7.79;100.00
29045;BME280;16133;49.486;12.176;2024-03-22T07:49:30;97620.84;;;7.94;100.00
29045;BME280;16133;49.486;12.176;2024-03-22T07:51:56;97615.66;;;8.10;100.00
29045;BME280;16133;49.486;12.176;2024-03-22T07:54:22;97615.66;;;8.10;100.00
29045;BME280;16133;49.486;12.176;2024-03-22T07:56:47;97622.44;;;8.21;100.00
29045;BME280;16133;49.486;12.176;2024-03-22T07:59:13;97619.19;;;8.27;100.00
29045;BME280;16133;49.486;12.176;2024-03-22T08:01:38;97604.19;;;8.36;100.00
29045;BME280;16133;49.486;12.176;2024-03-22T08:04:03;97602.91;;;8.48;100.00
29045;BME280;16133;49.486;12.176;2024-03-22T08:06:29;97610.53;;;8.59;100.00
29045;BME280;16133;49.486;12.176;2024-03-22T08:08:54;97609.25;;;8.71;100.00
29045;BME280;16133;49.486;12.176;2024-03-22T08:11:19;97599.50;;;8.88;100.00
29045;BME280;16133;49.486;12.176;2024-03-22T08:13:45;97599.53;;;9.04;100.00
29045;BME280;16133;49.486;12.176;2024-03-22T08:16:11;97595.38;;;9.18;100.00
29045;BME280;16133;49.486;12.176;2024-03-22T08:18:37;97594.88;;;9.30;100.00
29045;BME280;16133;49.486;12.176;2024-03-22T08:21:02;97581.78;;;9.45;100.00
29045;BME280;16133;49.486;12.176;2024-03-22T08:23:28;97590.03;;;9.58;100.00
29045;BME280;16133;49.486;12.176;2024-03-22T08:25:53;97591.34;;;9.62;100.00
29045;BME280;16133;49.486;12.176;2024-03-22T08:28:19;97586.03;;;9.70;100.00
29045;BME280;16133;49.486;12.176;2024-03-22T08:30:44;97588.50;;;9.80;100.00
29045;BME280;16133;49.486;12.176;2024-03-22T08:33:10;97594.91;;;9.85;100.00
29045;BME280;16133;49.486;12.176;2024-03-22T08:35:39;97590.25;;;9.95;100.00
29045;BME280;16133;49.486;12.176;2024-03-22T08:38:05;97590.84;;;10.14;100.00
29045;BME280;16133;49.486;12.176;2024-03-22T08:40:37;97592.16;;;10.26;100.00
29045;BME280;16133;49.486;12.176;2024-03-22T08:43:03;97592.47;;;10.31;100.00
29045;BME280;16133;49.486;12.176;2024-03-22T08:45:28;97591.41;;;10.40;100.00
29045;BME280;16133;49.486;12.176;2024-03-22T08:47:54;97586.91;;;10.48;100.00
29045;BME280;16133;49.486;12.176;2024-03-22T08:50:19;97585.44;;;10.46;100.00
29045;BME280;16133;49.486;12.176;2024-03-22T08:52:45;97583.56;;;10.46;100.00
29045;BME280;16133;49.486;12.176;2024-03-22T08:55:11;97579.69;;;10.65;100.00
29045;BME280;16133;49.486;12.176;2024-03-22T08:57:36;97577.66;;;10.90;100.00
29045;BME280;16133;49.486;12.176;2024-03-22T09:00:02;97578.00;;;11.10;100.00
29045;BME280;16133;49.486;12.176;2024-03-22T09:02:27;97569.91;;;11.26;100.00
29045;BME280;16133;49.486;12.176;2024-03-22T09:04:53;97561.88;;;11.34;100.00
29045;BME280;16133;49.486;12.176;2024-03-22T09:07:19;97576.84;;;11.49;100.00
29045;BME280;16133;49.486;12.176;2024-03-22T09:09:44;97574.19;;;11.49;100.00
29045;BME280;16133;49.486;12.176;2024-03-22T09:12:10;97570.44;;;11.73;100.00
29045;BME280;16133;49.486;12.176;2024-03-22T09:14:35;97567.63;;;11.89;100.00
29045;BME280;16133;49.486;12.176;2024-03-22T09:17:01;97576.41;;;12.05;100.00
29045;BME280;16133;49.486;12.176;2024-03-22T09:19:26;97561.34;;;12.26;100.00
29045;BME280;16133;49.486;12.176;2024-03-22T09:21:51;97563.88;;;12.49;100.00
29045;BME280;16133;49.486;12.176;2024-03-22T09:24:17;97567.66;;;12.61;100.00
29045;BME280;16133;49.486;12.176;2024-03-22T09:26:42;97562.22;;;12.69;100.00
29045;BME280;16133;49.486;12.176;2024-03-22T09:29:08;97559.44;;;12.77;100.00
29045;BME280;16133;49.486;12.176;2024-03-22T09:31:33;97566.09;;;12.88;100.00
29045;BME280;16133;49.486;12.176;2024-03-22T09:33:59;97565.97;;;12.96;100.00
29045;BME280;16133;49.486;12.176;2024-03-22T09:36:24;97566.06;;;13.03;100.00
29045;BME280;16133;49.486;12.176;2024-03-22T09:38:52;97571.97;;;13.19;100.00
29045;BME280;16133;49.486;12.176;2024-03-22T09:41:24;97568.59;;;13.32;100.00
29045;BME280;16133;49.486;12.176;2024-03-22T09:43:51;97570.91;;;13.41;100.00
29045;BME280;16133;49.486;12.176;2024-03-22T09:46:19;97578.84;;;13.56;100.00
29045;BME280;16133;49.486;12.176;2024-03-22T09:48:47;97591.25;;;13.70;100.00
29045;BME280;16133;49.486;12.176;2024-03-22T09:51:14;97598.69;;;13.81;100.00
29045;BME280;16133;49.486;12.176;2024-03-22T09:53:43;97605.13;;;13.94;100.00
29045;BME280;16133;49.486;12.176;2024-03-22T09:56:12;97614.00;;;14.01;100.00
29045;BME280;16133;49.486;12.176;2024-03-22T09:58:40;97615.69;;;14.08;100.00
29045;BME280;16133;49.486;12.176;2024-03-22T10:01:05;97625.97;;;14.11;100.00
29045;BME280;16133;49.486;12.176;2024-03-22T10:03:31;97611.44;;;14.14;100.00
29045;BME280;16133;49.486;12.176;2024-03-22T10:05:56;97623.56;;;14.23;100.00
29045;BME280;16133;49.486;12.176;2024-03-22T10:08:22;97631.63;;;14.29;100.00
29045;BME280;16133;49.486;12.176;2024-03-22T10:10:47;97626.47;;;14.28;100.00
29045;BME280;16133;49.486;12.176;2024-03-22T10:13:13;97630.16;;;14.27;100.00
29045;BME280;16133;49.486;12.176;2024-03-22T10:15:38;97638.81;;;14.29;100.00
29045;BME280;16133;49.486;12.176;2024-03-22T10:18:04;97642.06;;;14.24;100.00
29045;BME280;16133;49.486;12.176;2024-03-22T10:20:29;97647.00;;;14.27;100.00
29045;BME280;16133;49.486;12.176;2024-03-22T10:22:55;97643.28;;;14.22;100.00
29045;BME280;16133;49.486;12.176;2024-03-22T10:25:22;97640.72;;;14.07;100.00
29045;BME280;16133;49.486;12.176;2024-03-22T10:27:48;97641.84;;;13.92;100.00
29045;BME280;16133;49.486;12.176;2024-03-22T10:30:16;97637.97;;;13.66;100.00
29045;BME280;16133;49.486;12.176;2024-03-22T10:32:44;97640.16;;;13.35;100.00
29045;BME280;16133;49.486;12.176;2024-03-22T10:35:14;97640.66;;;13.03;100.00
29045;BME280;16133;49.486;12.176;2024-03-22T10:37:40;97636.44;;;12.72;100.00
29045;BME280;16133;49.486;12.176;2024-03-22T10:40:05;97640.03;;;12.50;100.00
29045;BME280;16133;49.486;12.176;2024-03-22T10:42:43;97627.13;;;12.32;100.00
29045;BME280;16133;49.486;12.176;2024-03-22T10:45:10;97623.91;;;12.37;100.00
29045;BME280;16133;49.486;12.176;2024-03-22T10:47:37;97619.94;;;12.48;100.00
29045;BME280;16133;49.486;12.176;2024-03-22T10:50:10;97610.34;;;12.68;100.00
29045;BME280;16133;49.486;12.176;2024-03-22T10:55:13;97604.38;;;13.23;100.00
29045;BME280;16133;49.486;12.176;2024-03-22T10:57:42;97598.06;;;13.52;100.00
29045;BME280;16133;49.486;12.176;2024-03-22T11:00:11;97585.34;;;13.81;100.00
29045;BME280;16133;49.486;12.176;2024-03-22T11:02:37;97598.44;;;14.11;100.00
29045;BME280;16133;49.486;12.176;2024-03-22T11:05:04;97601.50;;;14.42;100.00
29045;BME280;16133;49.486;12.176;2024-03-22T11:07:30;97607.13;;;14.60;100.00
29045;BME280;16133;49.486;12.176;2024-03-22T11:10:01;97603.75;;;14.93;100.00
29045;BME280;16133;49.486;12.176;2024-03-22T11:12:29;97595.56;;;15.20;100.00
29045;BME280;16133;49.486;12.176;2024-03-22T11:14:58;97598.88;;;15.36;100.00
29045;BME280;16133;49.486;12.176;2024-03-22T11:17:24;97618.19;;;15.38;100.00
29045;BME280;16133;49.486;12.176;2024-03-22T11:19:51;97605.06;;;15.49;100.00
29045;BME280;16133;49.486;12.176;2024-03-22T11:22:17;97606.75;;;15.63;100.00
29045;BME280;16133;49.486;12.176;2024-03-22T11:24:46;97607.13;;;15.60;100.00
29045;BME280;16133;49.486;12.176;2024-03-22T11:27:11;97606.72;;;15.50;100.00
29045;BME280;16133;49.486;12.176;2024-03-22T11:29:37;97611.41;;;15.35;100.00
29045;BME280;16133;49.486;12.176;2024-03-22T11:32:09;97597.19;;;15.08;100.00
29045;BME280;16133;49.486;12.176;2024-03-22T11:34:39;97605.59;;;14.92;100.00
29045;BME280;16133;49.486;12.176;2024-03-22T11:37:06;97599.59;;;14.70;100.00
29045;BME280;16133;49.486;12.176;2024-03-22T11:39:36;97596.66;;;14.59;100.00
29045;BME280;16133;49.486;12.176;2024-03-22T11:42:06;97591.47;;;14.44;100.00
29045;BME280;16133;49.486;12.176;2024-03-22T11:44:36;97585.47;;;14.35;100.00
29045;BME280;16133;49.486;12.176;2024-03-22T11:47:06;97583.78;;;14.28;100.00
29045;BME280;16133;49.486;12.176;2024-03-22T11:49:32;97572.28;;;14.34;98.60
29045;BME280;16133;49.486;12.176;2024-03-22T11:51:58;97568.63;;;14.35;99.82
29045;BME280;16133;49.486;12.176;2024-03-22T11:54:23;97566.19;;;14.40;97.04
29045;BME280;16133;49.486;12.176;2024-03-22T11:56:49;97557.63;;;14.58;96.52
29045;BME280;16133;49.486;12.176;2024-03-22T11:59:15;97558.09;;;14.74;95.33
29045;BME280;16133;49.486;12.176;2024-03-22T12:01:44;97547.41;;;14.81;88.47
29045;BME280;16133;49.486;12.176;2024-03-22T12:04:10;97545.22;;;15.17;84.93
29045;BME280;16133;49.486;12.176;2024-03-22T12:06:42;97539.63;;;15.39;85.45
29045;BME280;16133;49.486;12.176;2024-03-22T12:09:07;97542.72;;;15.49;83.13
29045;BME280;16133;49.486;12.176;2024-03-22T12:11:38;97535.53;;;15.62;81.86
29045;BME280;16133;49.486;12.176;2024-03-22T12:14:04;97531.38;;;15.79;77.42
29045;BME280;16133;49.486;12.176;2024-03-22T12:16:30;97525.56;;;15.96;76.17
29045;BME280;16133;49.486;12.176;2024-03-22T12:18:55;97525.16;;;15.99;73.88
29045;BME280;16133;49.486;12.176;2024-03-22T12:21:20;97519.78;;;16.05;73.26
29045;BME280;16133;49.486;12.176;2024-03-22T12:23:46;97511.09;;;16.10;72.81
29045;BME280;16133;49.486;12.176;2024-03-22T12:26:11;97513.53;;;16.18;73.34
29045;BME280;16133;49.486;12.176;2024-03-22T12:28:36;97505.28;;;16.33;71.54
29045;BME280;16133;49.486;12.176;2024-03-22T12:31:04;97496.94;;;16.47;71.38
29045;BME280;16133;49.486;12.176;2024-03-22T12:33:29;97490.50;;;16.61;69.05
29045;BME280;16133;49.486;12.176;2024-03-22T12:35:54;97484.19;;;16.81;68.74
29045;BME280;16133;49.486;12.176;2024-03-22T12:38:20;97485.41;;;17.09;68.69
29045;BME280;16133;49.486;12.176;2024-03-22T12:40:45;97479.16;;;17.40;68.19
29045;BME280;16133;49.486;12.176;2024-03-22T12:43:11;97481.47;;;17.61;65.06